sensor_id;sensor_type;location;lat;lon;timestamp;P1;durP1;ratioP1;P2;durP2;ratioP2
41921;SDS011;27609;51.002;5.354;2024-02-28T00:02:10;69.78;;;29.60;;
41921;SDS011;27609;51.002;5.354;2024-02-28T00:04:36;71.05;;;28.98;;
41921;SDS011;27609;51.002;5.354;2024-02-28T00:07:01;63.25;;;29.77;;
41921;SDS011;27609;51.002;5.354;2024-02-28T00:09:27;62.63;;;28.85;;
41921;SDS011;27609;51.002;5.354;2024-02-28T00:11:52;59.78;;;27.50;;
41921;SDS011;27609;51.002;5.354;2024-02-28T00:14:18;72.68;;;29.40;;
41921;SDS011;27609;51.002;5.354;2024-02-28T00:16:45;64.68;;;28.95;;
41921;SDS011;27609;51.002;5.354;2024-02-28T00:19:11;68.78;;;28.17;;
41921;SDS011;27609;51.002;5.354;2024-02-28T00:21:40;62.85;;;28.55;;
41921;SDS011;27609;51.002;5.354;2024-02-28T00:24:06;67.43;;;27.90;;
41921;SDS011;27609;51.002;5.354;2024-02-28T00:26:32;71.95;;;29.63;;
41921;SDS011;27609;51.002;5.354;2024-02-28T00:28:58;73.43;;;32.75;;
41921;SDS011;27609;51.002;5.354;2024-02-28T00:31:24;71.97;;;30.35;;
41921;SDS011;27609;51.002;5.354;2024-02-28T00:33:50;135.07;;;38.17;;
41921;SDS011;27609;51.002;5.354;2024-02-28T00:36:16;81.13;;;31.35;;
41921;SDS011;27609;51.002;5.354;2024-02-28T00:38:42;150.50;;;37.65;;
41921;SDS011;27609;51.002;5.354;2024-02-28T00:41:07;157.65;;;36.05;;
41921;SDS011;27609;51.002;5.354;2024-02-28T00:43:33;123.60;;;36.60;;
41921;SDS011;27609;51.002;5.354;2024-02-28T00:45:59;155.38;;;37.85;;
41921;SDS011;27609;51.002;5.354;2024-02-28T00:48:25;187.23;;;36.92;;
41921;SDS011;27609;51.002;5.354;2024-02-28T00:50:51;187.20;;;39.88;;
41921;SDS011;27609;51.002;5.354;2024-02-28T00:53:18;274.20;;;37.92;;
41921;SDS011;27609;51.002;5.354;2024-02-28T00:55:43;324.42;;;41.33;;
41921;SDS011;27609;51.002;5.354;2024-02-28T00:58:10;225.73;;;38.58;;
41921;SDS011;27609;51.002;5.354;2024-02-28T01:00:36;282.63;;;39.83;;
41921;SDS011;27609;51.002;5.354;2024-02-28T01:03:01;244.05;;;36.67;;
41921;SDS011;27609;51.002;5.354;2024-02-28T01:05:29;332.77;;;38.50;;
41921;SDS011;27609;51.002;5.354;2024-02-28T01:07:55;127.10;;;36.33;;
41921;SDS011;27609;51.002;5.354;2024-02-28T01:10:21;139.77;;;34.10;;
41921;SDS011;27609;51.002;5.354;2024-02-28T01:12:47;140.15;;;40.47;;
41921;SDS011;27609;51.002;5.354;2024-02-28T01:15:13;131.95;;;37.47;;
41921;SDS011;27609;51.002;5.354;2024-02-28T01:17:38;98.97;;;34.97;;
41921;SDS011;27609;51.002;5.354;2024-02-28T01:20:05;115.15;;;34.60;;
41921;SDS011;27609;51.002;5.354;2024-02-28T01:22:32;123.68;;;34.08;;
41921;SDS011;27609;51.002;5.354;2024-02-28T01:24:58;184.45;;;34.78;;
41921;SDS011;27609;51.002;5.354;2024-02-28T01:27:24;228.68;;;36.85;;
41921;SDS011;27609;51.002;5.354;2024-02-28T01:29:49;196.57;;;34.30;;
41921;SDS011;27609;51.002;5.354;2024-02-28T01:32:15;215.90;;;33.65;;
41921;SDS011;27609;51.002;5.354;2024-02-28T01:34:41;137.07;;;31.58;;
41921;SDS011;27609;51.002;5.354;2024-02-28T01:37:06;132.38;;;31.15;;
41921;SDS011;27609;51.002;5.354;2024-02-28T01:39:32;128.23;;;30.88;;
41921;SDS011;27609;51.002;5.354;2024-02-28T01:41:58;105.18;;;30.55;;
41921;SDS011;27609;51.002;5.354;2024-02-28T01:44:23;97.43;;;31.10;;
41921;SDS011;27609;51.002;5.354;2024-02-28T01:46:49;110.65;;;29.00;;
41921;SDS011;27609;51.002;5.354;2024-02-28T01:49:15;115.78;;;28.67;;
41921;SDS011;27609;51.002;5.354;2024-02-28T01:51:41;122.75;;;29.52;;
41921;SDS011;27609;51.002;5.354;2024-02-28T01:54:08;92.80;;;27.15;;
41921;SDS011;27609;51.002;5.354;2024-02-28T01:56:35;107.60;;;28.40;;
41921;SDS011;27609;51.002;5.354;2024-02-28T01:59:01;178.52;;;28.83;;
41921;SDS011;27609;51.002;5.354;2024-02-28T02:01:28;86.40;;;25.23;;
41921;SDS011;27609;51.002;5.354;2024-02-28T02:03:54;73.97;;;25.45;;
41921;SDS011;27609;51.002;5.354;2024-02-28T02:06:20;71.55;;;26.55;;
41921;SDS011;27609;51.002;5.354;2024-02-28T02:08:47;67.75;;;26.27;;
41921;SDS011;27609;51.002;5.354;2024-02-28T02:11:13;84.90;;;27.23;;
41921;SDS011;27609;51.002;5.354;2024-02-28T02:13:52;81.63;;;25.55;;
41921;SDS011;27609;51.002;5.354;2024-02-28T02:16:19;98.93;;;25.73;;
41921;SDS011;27609;51.002;5.354;2024-02-28T02:18:47;77.28;;;25.90;;
41921;SDS011;27609;51.002;5.354;2024-02-28T02:21:15;130.13;;;27.88;;
41921;SDS011;27609;51.002;5.354;2024-02-28T02:23:47;127.63;;;27.13;;
41921;SDS011;27609;51.002;5.354;2024-02-28T02:26:13;90.03;;;27.88;;
41921;SDS011;27609;51.002;5.354;2024-02-28T02:28:39;107.53;;;26.40;;
41921;SDS011;27609;51.002;5.354;2024-02-28T02:31:04;94.43;;;28.20;;
41921;SDS011;27609;51.002;5.354;2024-02-28T02:33:30;106.80;;;29.52;;
41921;SDS011;27609;51.002;5.354;2024-02-28T02:35:56;113.30;;;28.55;;
41921;SDS011;27609;51.002;5.354;2024-02-28T02:38:21;79.35;;;26.40;;
41921;SDS011;27609;51.002;5.354;2024-02-28T02:40:50;100.15;;;26.52;;
41921;SDS011;27609;51.002;5.354;2024-02-28T02:43:17;93.27;;;26.03;;
41921;SDS011;27609;51.002;5.354;2024-02-28T02:45:43;129.40;;;28.27;;
41921;SDS011;27609;51.002;5.354;2024-02-28T02:48:09;76.80;;;25.27;;
41921;SDS011;27609;51.002;5.354;2024-02-28T02:50:35;92.25;;;25.58;;
41921;SDS011;27609;51.002;5.354;2024-02-28T02:53:02;137.40;;;26.95;;
41921;SDS011;27609;51.002;5.354;2024-02-28T02:55:28;80.43;;;26.50;;
41921;SDS011;27609;51.002;5.354;2024-02-28T02:57:54;181.90;;;29.50;;
41921;SDS011;27609;51.002;5.354;2024-02-28T03:00:20;167.25;;;27.90;;
41921;SDS011;27609;51.002;5.354;2024-02-28T03:02:46;101.22;;;28.35;;
41921;SDS011;27609;51.002;5.354;2024-02-28T03:05:12;123.35;;;25.85;;
41921;SDS011;27609;51.002;5.354;2024-02-28T03:07:37;82.75;;;26.95;;
41921;SDS011;27609;51.002;5.354;2024-02-28T03:10:03;84.60;;;25.55;;
41921;SDS011;27609;51.002;5.354;2024-02-28T03:12:30;61.47;;;25.30;;
41921;SDS011;27609;51.002;5.354;2024-02-28T03:14:56;65.25;;;24.30;;
41921;SDS011;27609;51.002;5.354;2024-02-28T03:17:22;66.13;;;24.10;;
41921;SDS011;27609;51.002;5.354;2024-02-28T03:19:48;80.05;;;24.42;;
41921;SDS011;27609;51.002;5.354;2024-02-28T03:22:14;85.43;;;25.67;;
41921;SDS011;27609;51.002;5.354;2024-02-28T03:24:39;77.75;;;25.58;;
41921;SDS011;27609;51.002;5.354;2024-02-28T03:27:05;60.38;;;24.08;;
41921;SDS011;27609;51.002;5.354;2024-02-28T03:29:31;73.95;;;25.13;;
41921;SDS011;27609;51.002;5.354;2024-02-28T03:31:58;76.63;;;24.02;;
41921;SDS011;27609;51.002;5.354;2024-02-28T03:34:23;59.75;;;24.02;;
41921;SDS011;27609;51.002;5.354;2024-02-28T03:36:49;139.85;;;27.90;;
41921;SDS011;27609;51.002;5.354;2024-02-28T03:39:15;100.28;;;27.30;;
41921;SDS011;27609;51.002;5.354;2024-02-28T03:41:41;70.13;;;25.40;;
41921;SDS011;27609;51.002;5.354;2024-02-28T03:44:07;102.18;;;26.52;;
41921;SDS011;27609;51.002;5.354;2024-02-28T03:46:33;85.18;;;24.98;;
41921;SDS011;27609;51.002;5.354;2024-02-28T03:48:59;68.20;;;24.90;;
41921;SDS011;27609;51.002;5.354;2024-02-28T03:51:24;73.88;;;25.05;;
41921;SDS011;27609;51.002;5.354;2024-02-28T03:53:50;69.03;;;25.48;;
41921;SDS011;27609;51.002;5.354;2024-02-28T03:56:22;70.72;;;24.50;;
41921;SDS011;27609;51.002;5.354;2024-02-28T03:58:52;73.65;;;25.83;;
41921;SDS011;27609;51.002;5.354;2024-02-28T04:01:18;62.00;;;24.73;;
41921;SDS011;27609;51.002;5.354;2024-02-28T04:03:44;73.63;;;24.75;;
41921;SDS011;27609;51.002;5.354;2024-02-28T04:06:10;71.35;;;23.88;;
41921;SDS011;27609;51.002;5.354;2024-02-28T04:08:36;78.22;;;25.02;;
41921;SDS011;27609;51.002;5.354;2024-02-28T04:11:02;79.32;;;24.95;;
41921;SDS011;27609;51.002;5.354;2024-02-28T04:13:28;70.63;;;23.55;;
41921;SDS011;27609;51.002;5.354;2024-02-28T04:15:53;85.55;;;23.55;;
41921;SDS011;27609;51.002;5.354;2024-02-28T04:18:19;74.25;;;23.58;;
41921;SDS011;27609;51.002;5.354;2024-02-28T04:20:45;83.90;;;23.00;;
41921;SDS011;27609;51.002;5.354;2024-02-28T04:23:10;70.28;;;22.05;;
41921;SDS011;27609;51.002;5.354;2024-02-28T04:25:36;58.85;;;24.45;;
41921;SDS011;27609;51.002;5.354;2024-02-28T04:28:05;56.83;;;23.35;;
41921;SDS011;27609;51.002;5.354;2024-02-28T04:30:31;67.28;;;24.08;;
41921;SDS011;27609;51.002;5.354;2024-02-28T04:32:57;83.85;;;25.10;;
41921;SDS011;27609;51.002;5.354;2024-02-28T04:35:22;60.95;;;23.25;;
41921;SDS011;27609;51.002;5.354;2024-02-28T04:37:48;73.40;;;22.95;;
41921;SDS011;27609;51.002;5.354;2024-02-28T04:40:14;82.35;;;24.88;;
41921;SDS011;27609;51.002;5.354;2024-02-28T04:42:41;76.40;;;25.02;;
41921;SDS011;27609;51.002;5.354;2024-02-28T04:45:07;80.93;;;26.65;;
41921;SDS011;27609;51.002;5.354;2024-02-28T04:47:33;78.60;;;24.98;;
41921;SDS011;27609;51.002;5.354;2024-02-28T04:49:59;114.65;;;26.85;;
41921;SDS011;27609;51.002;5.354;2024-02-28T04:52:25;84.45;;;24.05;;
41921;SDS011;27609;51.002;5.354;2024-02-28T04:54:52;88.50;;;23.80;;
41921;SDS011;27609;51.002;5.354;2024-02-28T04:57:18;80.50;;;24.55;;
41921;SDS011;27609;51.002;5.354;2024-02-28T04:59:44;96.38;;;24.27;;
41921;SDS011;27609;51.002;5.354;2024-02-28T05:02:10;98.00;;;24.98;;
41921;SDS011;27609;51.002;5.354;2024-02-28T05:04:36;75.32;;;25.35;;
41921;SDS011;27609;51.002;5.354;2024-02-28T05:07:01;105.30;;;25.08;;
41921;SDS011;27609;51.002;5.354;2024-02-28T05:09:27;110.07;;;25.52;;
41921;SDS011;27609;51.002;5.354;2024-02-28T05:11:53;78.70;;;25.02;;
41921;SDS011;27609;51.002;5.354;2024-02-28T05:14:19;89.90;;;24.13;;
41921;SDS011;27609;51.002;5.354;2024-02-28T05:16:46;76.47;;;22.85;;
41921;SDS011;27609;51.002;5.354;2024-02-28T05:19:12;62.53;;;22.60;;
41921;SDS011;27609;51.002;5.354;2024-02-28T05:21:43;52.13;;;21.30;;
41921;SDS011;27609;51.002;5.354;2024-02-28T05:24:10;37.78;;;15.40;;
41921;SDS011;27609;51.002;5.354;2024-02-28T05:26:36;66.60;;;23.52;;
41921;SDS011;27609;51.002;5.354;2024-02-28T05:29:02;91.35;;;26.83;;
41921;SDS011;27609;51.002;5.354;2024-02-28T05:31:29;66.88;;;26.67;;
41921;SDS011;27609;51.002;5.354;2024-02-28T05:33:57;102.25;;;26.90;;
41921;SDS011;27609;51.002;5.354;2024-02-28T05:36:24;83.97;;;22.65;;
41921;SDS011;27609;51.002;5.354;2024-02-28T05:38:53;69.63;;;22.33;;
41921;SDS011;27609;51.002;5.354;2024-02-28T05:41:21;78.97;;;21.70;;
41921;SDS011;27609;51.002;5.354;2024-02-28T05:43:47;59.65;;;21.08;;
41921;SDS011;27609;51.002;5.354;2024-02-28T05:46:13;62.63;;;23.58;;
41921;SDS011;27609;51.002;5.354;2024-02-28T05:48:43;69.53;;;22.85;;
41921;SDS011;27609;51.002;5.354;2024-02-28T05:51:10;59.85;;;24.75;;
41921;SDS011;27609;51.002;5.354;2024-02-28T05:53:38;54.40;;;23.27;;
41921;SDS011;27609;51.002;5.354;2024-02-28T05:56:05;67.22;;;22.45;;
41921;SDS011;27609;51.002;5.354;2024-02-28T05:58:45;54.80;;;22.58;;
41921;SDS011;27609;51.002;5.354;2024-02-28T06:01:12;73.65;;;22.17;;
41921;SDS011;27609;51.002;5.354;2024-02-28T06:03:41;57.00;;;25.50;;
41921;SDS011;27609;51.002;5.354;2024-02-28T06:06:06;45.25;;;23.35;;
41921;SDS011;27609;51.002;5.354;2024-02-28T06:08:32;63.90;;;22.75;;
41921;SDS011;27609;51.002;5.354;2024-02-28T06:10:59;57.45;;;29.27;;
41921;SDS011;27609;51.002;5.354;2024-02-28T06:13:27;59.80;;;24.05;;
41921;SDS011;27609;51.002;5.354;2024-02-28T06:15:54;58.22;;;26.42;;
41921;SDS011;27609;51.002;5.354;2024-02-28T06:18:20;48.13;;;22.98;;
41921;SDS011;27609;51.002;5.354;2024-02-28T06:20:48;56.72;;;24.38;;
41921;SDS011;27609;51.002;5.354;2024-02-28T06:23:13;73.40;;;34.67;;
41921;SDS011;27609;51.002;5.354;2024-02-28T06:25:39;54.75;;;22.42;;
41921;SDS011;27609;51.002;5.354;2024-02-28T06:28:05;67.60;;;23.00;;
41921;SDS011;27609;51.002;5.354;2024-02-28T06:30:32;48.92;;;22.08;;
41921;SDS011;27609;51.002;5.354;2024-02-28T06:33:01;67.28;;;23.10;;
41921;SDS011;27609;51.002;5.354;2024-02-28T06:35:27;50.40;;;21.58;;
41921;SDS011;27609;51.002;5.354;2024-02-28T06:37:53;51.17;;;23.05;;
41921;SDS011;27609;51.002;5.354;2024-02-28T06:40:19;51.10;;;21.45;;
41921;SDS011;27609;51.002;5.354;2024-02-28T06:42:45;61.33;;;22.92;;
41921;SDS011;27609;51.002;5.354;2024-02-28T06:45:11;52.65;;;20.75;;
41921;SDS011;27609;51.002;5.354;2024-02-28T06:47:37;38.75;;;20.60;;
41921;SDS011;27609;51.002;5.354;2024-02-28T06:50:03;58.03;;;23.50;;
41921;SDS011;27609;51.002;5.354;2024-02-28T06:52:30;58.63;;;21.52;;
41921;SDS011;27609;51.002;5.354;2024-02-28T06:54:56;51.00;;;27.17;;
41921;SDS011;27609;51.002;5.354;2024-02-28T06:57:22;48.33;;;22.10;;
41921;SDS011;27609;51.002;5.354;2024-02-28T06:59:47;66.13;;;33.20;;
41921;SDS011;27609;51.002;5.354;2024-02-28T07:02:13;62.67;;;29.15;;
41921;SDS011;27609;51.002;5.354;2024-02-28T07:04:39;57.35;;;27.70;;
41921;SDS011;27609;51.002;5.354;2024-02-28T07:07:07;57.35;;;26.77;;
41921;SDS011;27609;51.002;5.354;2024-02-28T07:09:33;58.65;;;23.65;;
41921;SDS011;27609;51.002;5.354;2024-02-28T07:11:59;62.35;;;20.05;;
41921;SDS011;27609;51.002;5.354;2024-02-28T07:14:26;87.28;;;21.45;;
41921;SDS011;27609;51.002;5.354;2024-02-28T07:16:52;58.85;;;22.70;;
41921;SDS011;27609;51.002;5.354;2024-02-28T07:19:18;62.95;;;23.55;;
41921;SDS011;27609;51.002;5.354;2024-02-28T07:21:44;67.32;;;23.70;;
41921;SDS011;27609;51.002;5.354;2024-02-28T07:24:09;60.17;;;25.33;;
41921;SDS011;27609;51.002;5.354;2024-02-28T07:26:35;60.83;;;21.30;;
41921;SDS011;27609;51.002;5.354;2024-02-28T07:29:01;71.68;;;19.95;;
41921;SDS011;27609;51.002;5.354;2024-02-28T07:31:27;74.63;;;18.90;;
41921;SDS011;27609;51.002;5.354;2024-02-28T07:33:52;93.55;;;28.35;;
41921;SDS011;27609;51.002;5.354;2024-02-28T07:36:19;70.90;;;28.40;;
41921;SDS011;27609;51.002;5.354;2024-02-28T07:38:45;53.90;;;19.45;;
41921;SDS011;27609;51.002;5.354;2024-02-28T07:41:10;59.78;;;20.70;;
41921;SDS011;27609;51.002;5.354;2024-02-28T07:43:36;66.15;;;21.45;;
41921;SDS011;27609;51.002;5.354;2024-02-28T07:46:12;67.40;;;20.30;;
41921;SDS011;27609;51.002;5.354;2024-02-28T07:48:38;60.78;;;19.42;;
41921;SDS011;27609;51.002;5.354;2024-02-28T07:51:07;51.20;;;17.58;;
41921;SDS011;27609;51.002;5.354;2024-02-28T07:53:33;52.85;;;17.70;;
41921;SDS011;27609;51.002;5.354;2024-02-28T07:55:59;52.95;;;20.80;;
41921;SDS011;27609;51.002;5.354;2024-02-28T07:58:24;52.67;;;18.08;;
41921;SDS011;27609;51.002;5.354;2024-02-28T08:00:50;57.58;;;18.00;;
41921;SDS011;27609;51.002;5.354;2024-02-28T08:03:19;57.53;;;19.45;;
41921;SDS011;27609;51.002;5.354;2024-02-28T08:05:45;56.10;;;17.05;;
41921;SDS011;27609;51.002;5.354;2024-02-28T08:08:12;49.50;;;17.75;;
41921;SDS011;27609;51.002;5.354;2024-02-28T08:10:38;77.57;;;18.60;;
41921;SDS011;27609;51.002;5.354;2024-02-28T08:13:04;65.78;;;16.90;;
41921;SDS011;27609;51.002;5.354;2024-02-28T08:15:30;67.65;;;18.60;;
41921;SDS011;27609;51.002;5.354;2024-02-28T08:17:56;69.28;;;17.40;;
41921;SDS011;27609;51.002;5.354;2024-02-28T08:20:22;54.28;;;16.63;;
41921;SDS011;27609;51.002;5.354;2024-02-28T08:22:47;62.90;;;18.45;;
41921;SDS011;27609;51.002;5.354;2024-02-28T08:25:13;72.35;;;20.17;;
41921;SDS011;27609;51.002;5.354;2024-02-28T08:27:39;52.53;;;17.83;;
41921;SDS011;27609;51.002;5.354;2024-02-28T08:30:05;46.85;;;16.23;;
41921;SDS011;27609;51.002;5.354;2024-02-28T08:32:31;54.60;;;18.17;;
41921;SDS011;27609;51.002;5.354;2024-02-28T08:34:57;62.78;;;24.33;;
41921;SDS011;27609;51.002;5.354;2024-02-28T08:37:23;49.83;;;16.42;;
41921;SDS011;27609;51.002;5.354;2024-02-28T08:39:50;52.50;;;16.35;;
41921;SDS011;27609;51.002;5.354;2024-02-28T08:42:15;59.80;;;19.23;;
41921;SDS011;27609;51.002;5.354;2024-02-28T08:44:41;49.55;;;18.30;;
41921;SDS011;27609;51.002;5.354;2024-02-28T08:47:07;49.63;;;18.00;;
41921;SDS011;27609;51.002;5.354;2024-02-28T08:49:34;48.33;;;17.42;;
41921;SDS011;27609;51.002;5.354;2024-02-28T08:52:01;50.70;;;16.83;;
41921;SDS011;27609;51.002;5.354;2024-02-28T08:54:27;41.28;;;16.83;;
41921;SDS011;27609;51.002;5.354;2024-02-28T08:56:52;41.85;;;17.17;;
41921;SDS011;27609;51.002;5.354;2024-02-28T08:59:18;52.47;;;17.60;;
41921;SDS011;27609;51.002;5.354;2024-02-28T09:01:44;52.80;;;17.40;;
41921;SDS011;27609;51.002;5.354;2024-02-28T09:04:10;41.40;;;16.63;;
41921;SDS011;27609;51.002;5.354;2024-02-28T09:06:36;47.33;;;16.13;;
41921;SDS011;27609;51.002;5.354;2024-02-28T09:09:01;47.47;;;16.92;;
41921;SDS011;27609;51.002;5.354;2024-02-28T09:11:28;37.72;;;15.50;;
41921;SDS011;27609;51.002;5.354;2024-02-28T09:13:54;54.03;;;18.23;;
41921;SDS011;27609;51.002;5.354;2024-02-28T09:16:20;51.28;;;17.38;;
41921;SDS011;27609;51.002;5.354;2024-02-28T09:18:45;50.25;;;16.90;;
41921;SDS011;27609;51.002;5.354;2024-02-28T09:21:11;48.38;;;16.85;;
41921;SDS011;27609;51.002;5.354;2024-02-28T09:23:37;52.25;;;17.65;;
41921;SDS011;27609;51.002;5.354;2024-02-28T09:26:06;34.75;;;14.48;;
41921;SDS011;27609;51.002;5.354;2024-02-28T09:28:32;49.88;;;17.08;;
41921;SDS011;27609;51.002;5.354;2024-02-28T09:30:58;37.28;;;15.25;;
41921;SDS011;27609;51.002;5.354;2024-02-28T09:33:24;38.80;;;17.33;;
41921;SDS011;27609;51.002;5.354;2024-02-28T09:35:50;37.88;;;16.90;;
41921;SDS011;27609;51.002;5.354;2024-02-28T09:38:16;29.15;;;12.57;;
41921;SDS011;27609;51.002;5.354;2024-02-28T09:40:41;29.98;;;12.38;;
41921;SDS011;27609;51.002;5.354;2024-02-28T09:43:15;33.20;;;13.40;;
41921;SDS011;27609;51.002;5.354;2024-02-28T09:45:46;35.50;;;13.65;;
41921;SDS011;27609;51.002;5.354;2024-02-28T09:48:13;32.10;;;13.00;;
41921;SDS011;27609;51.002;5.354;2024-02-28T09:50:41;28.75;;;12.13;;
41921;SDS011;27609;51.002;5.354;2024-02-28T09:53:08;24.70;;;12.10;;
41921;SDS011;27609;51.002;5.354;2024-02-28T09:55:33;31.67;;;12.88;;
41921;SDS011;27609;51.002;5.354;2024-02-28T09:57:59;26.23;;;12.23;;
41921;SDS011;27609;51.002;5.354;2024-02-28T10:00:26;26.48;;;12.05;;
41921;SDS011;27609;51.002;5.354;2024-02-28T10:02:52;27.17;;;12.10;;
41921;SDS011;27609;51.002;5.354;2024-02-28T10:05:20;29.17;;;13.25;;
41921;SDS011;27609;51.002;5.354;2024-02-28T10:07:51;27.50;;;12.50;;
41921;SDS011;27609;51.002;5.354;2024-02-28T10:10:18;27.95;;;11.95;;
41921;SDS011;27609;51.002;5.354;2024-02-28T10:12:44;27.23;;;12.27;;
41921;SDS011;27609;51.002;5.354;2024-02-28T10:15:10;32.03;;;14.00;;
41921;SDS011;27609;51.002;5.354;2024-02-28T10:17:36;29.90;;;11.95;;
41921;SDS011;27609;51.002;5.354;2024-02-28T10:20:02;26.38;;;11.13;;
41921;SDS011;27609;51.002;5.354;2024-02-28T10:22:35;27.75;;;11.43;;
41921;SDS011;27609;51.002;5.354;2024-02-28T10:25:01;28.52;;;12.57;;
41921;SDS011;27609;51.002;5.354;2024-02-28T10:27:28;26.77;;;10.82;;
41921;SDS011;27609;51.002;5.354;2024-02-28T10:29:57;27.23;;;12.63;;
41921;SDS011;27609;51.002;5.354;2024-02-28T10:32:23;27.75;;;11.05;;
41921;SDS011;27609;51.002;5.354;2024-02-28T10:34:49;35.55;;;13.68;;
41921;SDS011;27609;51.002;5.354;2024-02-28T10:37:15;36.20;;;14.32;;
41921;SDS011;27609;51.002;5.354;2024-02-28T10:39:42;30.38;;;12.52;;
41921;SDS011;27609;51.002;5.354;2024-02-28T10:42:09;33.95;;;14.13;;
41921;SDS011;27609;51.002;5.354;2024-02-28T10:44:37;30.98;;;12.00;;
41921;SDS011;27609;51.002;5.354;2024-02-28T10:47:07;31.05;;;12.32;;
41921;SDS011;27609;51.002;5.354;2024-02-28T10:49:34;32.78;;;12.20;;
41921;SDS011;27609;51.002;5.354;2024-02-28T10:51:59;28.30;;;12.70;;
41921;SDS011;27609;51.002;5.354;2024-02-28T10:54:39;29.33;;;12.68;;
41921;SDS011;27609;51.002;5.354;2024-02-28T10:57:10;33.53;;;14.52;;
41921;SDS011;27609;51.002;5.354;2024-02-28T10:59:38;31.40;;;13.90;;
41921;SDS011;27609;51.002;5.354;2024-02-28T11:02:08;37.03;;;12.98;;
41921;SDS011;27609;51.002;5.354;2024-02-28T11:04:34;24.83;;;11.52;;
41921;SDS011;27609;51.002;5.354;2024-02-28T11:07:00;31.15;;;12.38;;
41921;SDS011;27609;51.002;5.354;2024-02-28T11:09:28;36.97;;;13.05;;
41921;SDS011;27609;51.002;5.354;2024-02-28T11:11:56;31.42;;;13.95;;
41921;SDS011;27609;51.002;5.354;2024-02-28T11:14:22;32.47;;;14.80;;
41921;SDS011;27609;51.002;5.354;2024-02-28T11:17:03;28.65;;;12.75;;
41921;SDS011;27609;51.002;5.354;2024-02-28T11:19:30;31.88;;;13.32;;
41921;SDS011;27609;51.002;5.354;2024-02-28T11:21:58;28.55;;;11.90;;
41921;SDS011;27609;51.002;5.354;2024-02-28T11:24:25;29.83;;;13.18;;
41921;SDS011;27609;51.002;5.354;2024-02-28T11:26:55;25.90;;;11.95;;
41921;SDS011;27609;51.002;5.354;2024-02-28T11:29:24;23.40;;;11.18;;
41921;SDS011;27609;51.002;5.354;2024-02-28T11:31:50;27.00;;;12.30;;
41921;SDS011;27609;51.002;5.354;2024-02-28T11:34:17;29.88;;;12.35;;
41921;SDS011;27609;51.002;5.354;2024-02-28T11:36:42;29.65;;;11.93;;
41921;SDS011;27609;51.002;5.354;2024-02-28T11:39:08;21.27;;;9.32;;
41921;SDS011;27609;51.002;5.354;2024-02-28T11:41:34;30.10;;;12.02;;
41921;SDS011;27609;51.002;5.354;2024-02-28T11:43:59;29.73;;;13.07;;
41921;SDS011;27609;51.002;5.354;2024-02-28T11:46:26;25.35;;;10.95;;
41921;SDS011;27609;51.002;5.354;2024-02-28T11:48:52;22.80;;;11.93;;
41921;SDS011;27609;51.002;5.354;2024-02-28T11:51:19;30.27;;;12.05;;
41921;SDS011;27609;51.002;5.354;2024-02-28T11:53:45;23.92;;;13.05;;
41921;SDS011;27609;51.002;5.354;2024-02-28T11:56:10;21.80;;;10.15;;
41921;SDS011;27609;51.002;5.354;2024-02-28T11:58:36;28.35;;;12.18;;
41921;SDS011;27609;51.002;5.354;2024-02-28T12:01:02;23.05;;;11.65;;
41921;SDS011;27609;51.002;5.354;2024-02-28T12:03:28;26.42;;;10.85;;
41921;SDS011;27609;51.002;5.354;2024-02-28T12:05:54;26.17;;;10.70;;
41921;SDS011;27609;51.002;5.354;2024-02-28T12:08:21;25.80;;;12.32;;
41921;SDS011;27609;51.002;5.354;2024-02-28T12:10:47;23.40;;;10.55;;
41921;SDS011;27609;51.002;5.354;2024-02-28T12:13:19;27.98;;;10.07;;
41921;SDS011;27609;51.002;5.354;2024-02-28T12:15:47;19.80;;;10.32;;
41921;SDS011;27609;51.002;5.354;2024-02-28T12:18:16;18.85;;;8.88;;
41921;SDS011;27609;51.002;5.354;2024-02-28T12:20:42;16.60;;;8.88;;
41921;SDS011;27609;51.002;5.354;2024-02-28T12:23:07;18.92;;;8.07;;
41921;SDS011;27609;51.002;5.354;2024-02-28T12:25:33;18.85;;;7.68;;
41921;SDS011;27609;51.002;5.354;2024-02-28T12:28:00;19.77;;;8.98;;
41921;SDS011;27609;51.002;5.354;2024-02-28T12:30:26;16.45;;;7.60;;
41921;SDS011;27609;51.002;5.354;2024-02-28T12:32:52;21.40;;;8.07;;
41921;SDS011;27609;51.002;5.354;2024-02-28T12:35:17;17.48;;;7.78;;
41921;SDS011;27609;51.002;5.354;2024-02-28T12:37:43;17.48;;;8.10;;
41921;SDS011;27609;51.002;5.354;2024-02-28T12:40:09;20.55;;;8.38;;
41921;SDS011;27609;51.002;5.354;2024-02-28T12:42:35;14.23;;;8.07;;
41921;SDS011;27609;51.002;5.354;2024-02-28T12:45:01;16.20;;;8.65;;
41921;SDS011;27609;51.002;5.354;2024-02-28T12:47:28;16.65;;;7.72;;
41921;SDS011;27609;51.002;5.354;2024-02-28T12:49:56;15.43;;;7.53;;
41921;SDS011;27609;51.002;5.354;2024-02-28T12:52:22;14.88;;;7.25;;
41921;SDS011;27609;51.002;5.354;2024-02-28T12:54:49;12.57;;;6.63;;
41921;SDS011;27609;51.002;5.354;2024-02-28T12:57:15;13.80;;;7.13;;
41921;SDS011;27609;51.002;5.354;2024-02-28T12:59:41;16.15;;;7.18;;
41921;SDS011;27609;51.002;5.354;2024-02-28T13:02:08;14.68;;;6.80;;
41921;SDS011;27609;51.002;5.354;2024-02-28T13:04:35;13.65;;;5.72;;
41921;SDS011;27609;51.002;5.354;2024-02-28T13:07:00;10.23;;;4.65;;
41921;SDS011;27609;51.002;5.354;2024-02-28T13:09:26;10.40;;;5.28;;
41921;SDS011;27609;51.002;5.354;2024-02-28T13:11:52;13.13;;;5.10;;
41921;SDS011;27609;51.002;5.354;2024-02-28T13:14:18;9.93;;;5.45;;
41921;SDS011;27609;51.002;5.354;2024-02-28T13:16:44;6.47;;;4.03;;
41921;SDS011;27609;51.002;5.354;2024-02-28T13:19:10;11.15;;;5.55;;
41921;SDS011;27609;51.002;5.354;2024-02-28T13:21:35;9.80;;;5.72;;
41921;SDS011;27609;51.002;5.354;2024-02-28T13:24:02;9.80;;;5.03;;
41921;SDS011;27609;51.002;5.354;2024-02-28T13:26:28;10.55;;;4.07;;
41921;SDS011;27609;51.002;5.354;2024-02-28T13:28:54;10.35;;;5.03;;
41921;SDS011;27609;51.002;5.354;2024-02-28T13:31:20;5.25;;;3.55;;
41921;SDS011;27609;51.002;5.354;2024-02-28T13:33:45;8.27;;;3.72;;
41921;SDS011;27609;51.002;5.354;2024-02-28T13:36:13;5.55;;;3.13;;
41921;SDS011;27609;51.002;5.354;2024-02-28T13:38:39;8.90;;;3.72;;
41921;SDS011;27609;51.002;5.354;2024-02-28T13:41:04;5.57;;;3.53;;
41921;SDS011;27609;51.002;5.354;2024-02-28T13:43:30;8.90;;;3.85;;
41921;SDS011;27609;51.002;5.354;2024-02-28T13:45:56;7.35;;;3.60;;
41921;SDS011;27609;51.002;5.354;2024-02-28T13:48:25;9.38;;;3.97;;
41921;SDS011;27609;51.002;5.354;2024-02-28T13:50:53;6.70;;;3.35;;
41921;SDS011;27609;51.002;5.354;2024-02-28T13:53:19;8.32;;;3.67;;
41921;SDS011;27609;51.002;5.354;2024-02-28T13:55:45;4.78;;;2.88;;
41921;SDS011;27609;51.002;5.354;2024-02-28T13:58:11;6.88;;;3.63;;
41921;SDS011;27609;51.002;5.354;2024-02-28T14:00:38;5.88;;;3.33;;
41921;SDS011;27609;51.002;5.354;2024-02-28T14:03:05;5.68;;;3.40;;
41921;SDS011;27609;51.002;5.354;2024-02-28T14:05:31;4.72;;;2.80;;
41921;SDS011;27609;51.002;5.354;2024-02-28T14:07:57;4.63;;;3.10;;
41921;SDS011;27609;51.002;5.354;2024-02-28T14:10:23;7.45;;;2.90;;
41921;SDS011;27609;51.002;5.354;2024-02-28T14:12:49;5.72;;;2.72;;
41921;SDS011;27609;51.002;5.354;2024-02-28T14:15:17;7.10;;;2.45;;
41921;SDS011;27609;51.002;5.354;2024-02-28T14:17:47;5.95;;;2.78;;
41921;SDS011;27609;51.002;5.354;2024-02-28T14:20:13;6.43;;;3.50;;